Time;durP1;ratioP1;P1;durP2;ratioP2;P2;SDS_P1;SDS_P2;PMS_P1;PMS_P2;Temp;Humidity;BMP_temperature;BMP_pressure;BME280_temperature;BME280_humidity;BME280_pressure;Samples;Min_cycle;Max_cycle;Signal;HPM_P1;HPM_P2
2022/06/13 00:01:21;;;;;;;5.82;2.72;;;14.80;99.90;;;;;;4987082;28;20050;-87
2022/06/13 00:03:48;;;;;;;3.55;2.47;;;14.80;99.90;;;;;;5004897;28;20033;-87
2022/06/13 00:06:14;;;;;;;3.72;3.08;;;14.80;99.90;;;;;;5004209;28;20050;-87
2022/06/13 00:08:40;;;;;;;3.30;3.00;;;14.80;99.90;;;;;;5005022;28;20092;-86
2022/06/13 00:11:09;;;;;;;5.07;2.83;;;14.70;99.90;;;;;;5003924;28;20212;-87
2022/06/13 00:13:36;;;;;;;5.65;2.97;;;14.70;99.90;;;;;;5004972;28;20034;-86
2022/06/13 00:16:01;;;;;;;6.82;2.75;;;14.70;99.90;;;;;;5002968;28;20077;-86
2022/06/13 00:18:27;;;;;;;6.55;3.20;;;14.80;99.90;;;;;;5003767;28;20078;-87
2022/06/13 00:20:54;;;;;;;4.15;3.17;;;14.70;99.90;;;;;;5004365;28;20688;-86
2022/06/13 00:23:19;;;;;;;5.63;3.10;;;14.70;99.90;;;;;;5004546;28;20046;-86
2022/06/13 00:25:45;;;;;;;3.58;3.03;;;14.70;99.90;;;;;;4986233;28;20679;-86
2022/06/13 00:28:10;;;;;;;2.85;2.10;;;14.70;99.90;;;;;;5004245;28;20060;-87
2022/06/13 00:30:37;;;;;;;5.18;3.33;;;14.70;99.90;;;;;;5004789;28;20041;-86
2022/06/13 00:33:03;;;;;;;5.20;4.03;;;14.80;99.90;;;;;;5004536;28;20123;-87
2022/06/13 00:35:29;;;;;;;6.40;2.78;;;14.80;99.90;;;;;;5003245;28;20136;-86
2022/06/13 00:37:54;;;;;;;3.83;2.90;;;14.80;99.90;;;;;;5004834;28;20252;-86
2022/06/13 00:40:20;;;;;;;9.57;4.03;;;14.80;99.90;;;;;;5001703;28;20627;-86
2022/06/13 00:42:46;;;;;;;5.55;3.33;;;14.70;99.90;;;;;;5004388;28;20038;-86
2022/06/13 00:45:24;;;;;;;8.77;3.58;;;14.70;99.90;;;;;;5004261;28;21074;-87
2022/06/13 00:47:53;;;;;;;7.35;3.28;;;14.70;99.90;;;;;;5004161;28;20088;-87
2022/06/13 00:50:25;;;;;;;6.78;3.60;;;14.70;99.90;;;;;;5002389;28;20046;-87
2022/06/13 00:52:58;;;;;;;3.45;3.03;;;14.60;99.90;;;;;;5003000;28;20663;-87
2022/06/13 00:55:31;;;;;;;4.15;2.92;;;14.70;99.90;;;;;;5002058;28;20465;-86
2022/06/13 00:58:00;;;;;;;10.73;3.40;;;14.60;99.90;;;;;;5003170;28;20046;-87
2022/06/13 01:00:26;;;;;;;2.92;2.35;;;14.60;99.90;;;;;;5004495;28;20045;-87
2022/06/13 01:02:54;;;;;;;5.25;2.78;;;14.60;99.90;;;;;;5001755;28;20042;-87
2022/06/13 01:05:24;;;;;;;4.60;3.28;;;14.60;99.90;;;;;;5003537;28;20378;-86
2022/06/13 01:07:50;;;;;;;9.57;3.22;;;14.60;99.90;;;;;;5002603;28;20050;-86
2022/06/13 01:13:04;;;;;;;4.75;2.78;;;14.60;99.90;;;;;;5018211;23;20469;-75
2022/06/13 01:15:57;;;;;;;12.23;3.03;;;14.60;99.90;;;;;;5003348;28;20403;-75
2022/06/13 01:18:32;;;;;;;4.03;2.83;;;14.60;99.90;;;;;;5002638;28;20042;-75
2022/06/13 01:21:13;;;;;;;5.13;2.97;;;14.60;99.90;;;;;;5003727;28;20049;-75
2022/06/13 01:23:56;;;;;;;3.85;2.60;;;14.60;99.90;;;;;;5001064;28;20500;-75
2022/06/13 01:26:33;;;;;;;2.58;2.13;;;14.60;99.90;;;;;;5000129;28;20034;-75
2022/06/13 01:29:23;;;;;;;3.00;2.42;;;14.60;99.90;;;;;;5003675;28;20104;-75
2022/06/13 01:32:15;;;;;;;2.90;2.63;;;14.50;99.90;;;;;;5003221;28;20042;-75
2022/06/13 01:35:05;;;;;;;3.80;2.63;;;14.50;99.90;;;;;;5002680;28;20038;-75
2022/06/13 01:37:36;;;;;;;6.07;3.40;;;14.50;99.90;;;;;;5003302;28;20050;-75
2022/06/13 01:40:38;;;;;;;2.80;2.35;;;14.50;99.90;;;;;;5000441;28;20070;-76
2022/06/13 01:43:16;;;;;;;8.07;2.65;;;14.50;99.90;;;;;;4981671;28;20046;-76
2022/06/13 01:46:04;;;;;;;2.95;2.08;;;14.50;99.90;;;;;;5001423;28;20050;-75
2022/06/13 01:48:57;;;;;;;3.47;2.00;;;14.50;99.90;;;;;;5002865;28;20076;-75
2022/06/13 01:51:34;;;;;;;2.45;1.80;;;14.50;99.90;;;;;;4982900;28;20073;-75
2022/06/13 01:54:22;;;;;;;5.35;2.50;;;14.50;99.90;;;;;;4999052;28;20070;-75
2022/06/13 01:56:54;;;;;;;4.15;2.20;;;14.50;99.90;;;;;;4987959;28;20080;-75
2022/06/13 01:59:39;;;;;;;1.60;1.50;;;14.50;99.90;;;;;;4997259;28;20069;-75
2022/06/13 02:02:13;;;;;;;5.13;1.58;;;14.50;99.90;;;;;;4984291;28;20054;-75
2022/06/13 02:05:00;;;;;;;4.00;1.58;;;14.50;99.90;;;;;;5001841;28;20042;-75
2022/06/13 02:07:31;;;;;;;2.50;1.48;;;14.50;99.90;;;;;;4999961;28;20042;-75
2022/06/13 02:10:01;;;;;;;2.28;1.90;;;14.60;99.90;;;;;;5000808;28;20077;-75
2022/06/13 02:12:32;;;;;;;3.97;1.83;;;14.50;99.90;;;;;;5002458;28;20087;-75
2022/06/13 02:15:05;;;;;;;11.85;2.05;;;14.50;99.90;;;;;;4979836;28;20046;-75
2022/06/13 02:17:37;;;;;;;5.28;1.23;;;14.60;99.90;;;;;;5001800;28;20428;-75
2022/06/13 02:20:11;;;;;;;3.65;2.47;;;14.60;99.90;;;;;;5001458;28;20524;-75
2022/06/13 02:22:41;;;;;;;2.33;1.55;;;14.60;99.90;;;;;;5001901;28;20046;-75
2022/06/13 02:25:24;;;;;;;7.47;1.55;;;14.60;99.90;;;;;;4999348;28;20042;-75
2022/06/13 02:28:13;;;;;;;5.38;2.25;;;14.60;99.90;;;;;;5002537;28;20480;-75
2022/06/13 02:30:53;;;;;;;4.15;1.23;;;14.60;99.90;;;;;;5000632;28;20112;-75
2022/06/13 02:33:29;;;;;;;2.83;1.63;;;14.60;99.90;;;;;;4999616;28;20495;-75
2022/06/13 02:36:10;;;;;;;3.53;2.15;;;14.60;99.90;;;;;;5001194;28;20057;-75
2022/06/13 02:39:21;;;;;;;1.73;1.60;;;14.60;99.90;;;;;;5000500;28;20042;-75
2022/06/13 02:41:53;;;;;;;5.95;1.92;;;14.60;99.90;;;;;;4989481;28;20138;-75
2022/06/13 02:44:36;;;;;;;1.27;1.17;;;14.60;99.90;;;;;;4999977;28;20430;-75
2022/06/13 02:47:09;;;;;;;;;;;14.60;99.90;;;;;;5001726;28;20536;-75
2022/06/13 02:49:41;;;;;;;1.98;1.83;;;14.60;99.90;;;;;;5001412;28;19922;-75
2022/06/13 02:52:27;;;;;;;1.33;1.23;;;14.60;99.90;;;;;;5000348;28;20494;-75
2022/06/13 02:55:00;;;;;;;1.58;1.48;;;14.50;99.90;;;;;;5004095;28;20038;-75
2022/06/13 02:57:53;;;;;;;3.38;2.08;;;14.60;99.90;;;;;;5002195;28;20500;-76
2022/06/13 03:00:44;;;;;;;2.40;1.48;;;14.60;99.90;;;;;;5000315;28;20700;-75
2022/06/13 03:03:16;;;;;;;4.45;1.95;;;14.60;99.90;;;;;;4999491;28;20137;-75
2022/06/13 03:06:02;;;;;;;5.47;1.00;;;14.60;99.90;;;;;;5000057;28;20054;-75
2022/06/13 03:08:42;;;;;;;2.42;1.17;;;14.60;99.90;;;;;;4999810;28;20048;-75
2022/06/13 03:11:22;;;;;;;1.00;0.90;;;14.60;99.90;;;;;;4999526;28;20058;-75
2022/06/13 03:13:55;;;;;;;2.97;1.15;;;14.60;99.90;;;;;;5001138;28;20450;-76
2022/06/13 03:16:51;;;;;;;1.63;0.98;;;14.50;99.90;;;;;;4999456;28;20048;-76
2022/06/13 03:19:21;;;;;;;1.73;1.23;;;14.60;99.90;;;;;;4977502;28;20054;-75
2022/06/13 03:21:51;;;;;;;1.35;1.02;;;14.60;99.90;;;;;;5000986;28;20038;-75
2022/06/13 03:24:25;;;;;;;1.33;1.23;;;14.60;99.90;;;;;;4995808;28;20050;-75
2022/06/13 03:27:14;;;;;;;1.10;1.00;;;14.50;99.90;;;;;;5000518;28;20525;-75
2022/06/13 03:29:47;;;;;;;3.17;0.93;;;14.50;99.90;;;;;;5000436;28;20037;-75
2022/06/13 03:32:29;;;;;;;0.93;0.93;;;14.50;99.90;;;;;;5001278;28;20046;-75
2022/06/13 03:35:00;;;;;;;2.22;1.70;;;14.50;99.90;;;;;;5000054;28;20049;-76
2022/06/13 03:37:48;;;;;;;3.00;1.58;;;14.50;99.90;;;;;;4999449;28;20076;-75
2022/06/13 03:40:24;;;;;;;1.05;1.05;;;14.50;99.90;;;;;;4983117;28;20053;-75
2022/06/13 03:43:05;;;;;;;1.13;0.90;;;14.50;99.90;;;;;;4996753;28;20041;-75
2022/06/13 03:45:39;;;;;;;1.27;1.17;;;14.50;99.90;;;;;;4999815;28;20135;-75
2022/06/13 03:48:12;;;;;;;1.10;0.90;;;14.50;99.90;;;;;;5000243;28;20148;-76
2022/06/13 03:50:51;;;;;;;1.10;1.05;;;14.50;99.90;;;;;;5000678;28;20115;-75
2022/06/13 03:53:21;;;;;;;1.50;0.88;;;14.50;99.90;;;;;;5000188;28;20038;-75
2022/06/13 03:56:14;;;;;;;5.57;1.73;;;14.50;99.90;;;;;;4999613;28;20034;-76
2022/06/13 03:58:45;;;;;;;2.15;1.95;;;14.50;99.90;;;;;;4993178;28;20057;-75
2022/06/13 04:01:26;;;;;;;4.45;2.15;;;14.50;99.90;;;;;;4999915;28;20046;-75
2022/06/13 04:03:55;;;;;;;8.80;1.65;;;14.50;99.90;;;;;;5000289;28;20049;-75
2022/06/13 04:06:41;;;;;;;5.40;1.40;;;14.50;99.90;;;;;;5000156;28;20104;-75
2022/06/13 04:09:19;;;;;;;2.08;0.75;;;14.50;99.90;;;;;;4999935;28;20053;-75
2022/06/13 04:12:18;;;;;;;1.02;0.80;;;14.50;99.90;;;;;;5000598;28;20128;-75
2022/06/13 04:15:28;;;;;;;2.83;1.67;;;14.50;99.90;;;;;;4998967;28;20108;-76
2022/06/13 04:17:53;;;;;;;4.00;2.45;;;14.40;99.90;;;;;;4981245;28;20416;-81
2022/06/13 04:20:47;;;;;;;4.63;1.20;;;14.20;99.90;;;;;;4980125;28;20054;-80
2022/06/13 04:23:22;;;;;;;2.10;1.35;;;13.80;99.90;;;;;;4981060;28;20121;-80
2022/06/13 04:25:53;;;;;;;2.28;1.02;;;13.60;99.90;;;;;;4979196;28;20046;-80
2022/06/13 04:28:40;;;;;;;9.43;1.50;;;13.40;99.90;;;;;;5000085;28;20046;-80
2022/06/13 04:31:07;;;;;;;0.68;0.65;;;13.30;99.90;;;;;;4998748;28;20042;-80
2022/06/13 04:33:45;;;;;;;1.27;1.20;;;13.10;99.90;;;;;;4999648;28;20057;-79
2022/06/13 04:36:12;;;;;;;1.75;0.90;;;13.10;99.90;;;;;;5015027;28;20448;-80
2022/06/13 04:38:45;;;;;;;1.25;1.15;;;13.10;99.90;;;;;;5001353;28;20095;-79
2022/06/13 04:41:12;;;;;;;0.98;0.95;;;13.10;99.90;;;;;;5003573;28;20539;-79
2022/06/13 04:43:46;;;;;;;1.45;1.25;;;13.10;99.90;;;;;;5002203;28;20432;-80
2022/06/13 04:46:23;;;;;;;1.55;1.45;;;13.10;99.90;;;;;;5013751;28;20080;-79
2022/06/13 04:49:04;;;;;;;4.80;2.20;;;13.00;99.90;;;;;;4997162;28;20080;-79
2022/06/13 04:51:43;;;;;;;0.95;0.90;;;13.00;99.90;;;;;;4984310;28;20052;-79
2022/06/13 04:54:20;;;;;;;3.05;1.83;;;13.00;99.90;;;;;;4990604;28;20034;-80
2022/06/13 04:56:46;;;;;;;1.33;1.10;;;13.10;99.90;;;;;;4991782;28;20057;-79
2022/06/13 04:59:14;;;;;;;1.35;1.25;;;13.10;99.90;;;;;;5002877;28;20125;-79
2022/06/13 05:01:48;;;;;;;5.78;1.70;;;13.10;99.90;;;;;;5002673;28;20484;-79
2022/06/13 05:04:19;;;;;;;2.08;1.52;;;13.20;99.90;;;;;;5002897;28;20112;-79
2022/06/13 05:06:50;;;;;;;3.63;1.40;;;13.20;99.90;;;;;;5003337;28;20777;-79
2022/06/13 05:09:19;;;;;;;3.92;1.52;;;13.30;99.90;;;;;;5001921;28;20049;-79
2022/06/13 05:12:05;;;;;;;4.32;1.88;;;13.20;99.90;;;;;;5003541;28;20144;-79
2022/06/13 05:14:43;;;;;;;1.85;1.35;;;13.30;99.90;;;;;;5002087;28;20500;-79
2022/06/13 05:17:15;;;;;;;3.45;1.52;;;13.30;99.90;;;;;;5002153;28;20109;-79
2022/06/13 05:19:56;;;;;;;5.28;1.63;;;13.40;99.90;;;;;;5001988;28;20096;-79
2022/06/13 05:22:24;;;;;;;5.93;2.58;;;13.40;99.90;;;;;;5001186;28;20038;-80
2022/06/13 05:25:05;;;;;;;7.65;2.03;;;13.50;99.90;;;;;;5002432;28;20041;-80
2022/06/13 05:27:30;;;;;;;2.03;1.23;;;13.50;99.90;;;;;;5001180;28;20050;-80
2022/06/13 05:29:56;;;;;;;1.63;1.35;;;13.60;99.90;;;;;;5001860;28;20136;-79
2022/06/13 05:32:23;;;;;;;4.68;1.30;;;13.60;99.90;;;;;;5001682;28;20045;-80
2022/06/13 05:34:49;;;;;;;2.13;0.90;;;13.60;99.90;;;;;;5000787;28;20057;-82
2022/06/13 05:37:16;;;;;;;2.08;1.30;;;13.60;99.90;;;;;;5007551;28;20073;-82
2022/06/13 05:39:43;;;;;;;4.50;1.42;;;13.70;99.90;;;;;;5001891;28;20033;-77
2022/06/13 05:42:13;;;;;;;1.52;1.42;;;13.70;99.90;;;;;;5002226;28;20112;-83
2022/06/13 05:44:40;;;;;;;3.80;2.00;;;13.70;99.90;;;;;;5002569;28;20565;-83
2022/06/13 05:47:13;;;;;;;3.33;1.55;;;13.70;99.90;;;;;;5000995;28;20400;-84
2022/06/13 05:49:39;;;;;;;2.17;1.50;;;13.70;99.90;;;;;;5001151;28;20046;-85
2022/06/13 05:52:04;;;;;;;0.98;0.95;;;13.70;99.90;;;;;;5000589;28;20056;-76
2022/06/13 05:54:30;;;;;;;2.80;2.05;;;13.60;99.90;;;;;;5007660;28;20384;-81
2022/06/13 05:56:56;;;;;;;1.23;1.13;;;13.60;99.90;;;;;;5007576;28;20045;-81
2022/06/13 05:59:21;;;;;;;1.25;0.98;;;13.60;99.90;;;;;;5008468;28;20045;-78
2022/06/13 06:01:47;;;;;;;1.30;1.20;;;13.60;99.90;;;;;;5001946;28;20045;-79
2022/06/13 06:04:12;;;;;;;1.55;1.10;;;13.60;99.90;;;;;;5001979;28;20042;-83
2022/06/13 06:06:38;;;;;;;4.45;1.55;;;13.60;99.90;;;;;;5001930;28;20038;-82
2022/06/13 06:09:05;;;;;;;5.22;2.03;;;13.70;99.90;;;;;;4985135;28;20461;-81
2022/06/13 06:11:32;;;;;;;4.53;1.20;;;13.70;99.90;;;;;;5022077;28;20053;-83
2022/06/13 06:13:58;;;;;;;7.97;1.52;;;13.70;99.90;;;;;;5019520;28;20582;-83
2022/06/13 06:16:25;;;;;;;2.20;1.65;;;13.70;99.90;;;;;;5019362;28;20065;-83
2022/06/13 06:18:51;;;;;;;3.03;1.40;;;13.80;99.90;;;;;;5015406;28;20048;-82
2022/06/13 06:21:17;;;;;;;3.45;1.40;;;13.80;99.90;;;;;;5000759;28;20038;-82
2022/06/13 06:23:43;;;;;;;2.40;1.30;;;13.80;99.90;;;;;;5014400;28;20048;-82
2022/06/13 06:26:11;;;;;;;3.33;1.20;;;13.90;99.90;;;;;;5009525;28;20048;-82
2022/06/13 06:28:36;;;;;;;3.25;1.50;;;13.90;99.90;;;;;;5019310;28;20041;-82
2022/06/13 06:31:05;;;;;;;1.52;1.15;;;13.90;99.90;;;;;;5019943;28;20137;-82
2022/06/13 06:33:32;;;;;;;2.45;0.90;;;13.90;99.90;;;;;;4981455;28;20051;-82
2022/06/13 06:35:58;;;;;;;4.65;1.52;;;14.00;99.90;;;;;;4981595;28;20136;-82
2022/06/13 06:38:25;;;;;;;4.18;1.13;;;14.10;99.90;;;;;;4978953;28;20049;-83
2022/06/13 06:40:52;;;;;;;3.92;1.00;;;14.10;99.90;;;;;;4979823;28;20050;-82
2022/06/13 06:43:18;;;;;;;2.67;1.70;;;14.10;99.90;;;;;;4987736;28;20108;-82
2022/06/13 06:45:44;;;;;;;2.30;1.50;;;14.10;99.90;;;;;;4999581;28;20053;-83
2022/06/13 06:48:26;;;;;;;1.45;0.90;;;14.10;99.90;;;;;;4999605;28;20480;-83
2022/06/13 06:50:52;;;;;;;1.90;1.02;;;14.10;99.90;;;;;;4989364;28;20053;-82
2022/06/13 06:53:20;;;;;;;8.60;1.92;;;14.20;99.90;;;;;;5002272;28;20507;-81
2022/06/13 07:01:18;;;;;;;1.25;1.02;;;14.20;99.90;;;;;;5010224;28;20154;-82
2022/06/13 07:03:44;;;;;;;1.98;1.33;;;14.20;99.90;;;;;;5000670;28;20046;-81
2022/06/13 07:06:11;;;;;;;3.33;1.20;;;14.10;99.90;;;;;;5011746;28;20045;-82
2022/06/13 07:08:37;;;;;;;4.57;1.85;;;14.20;99.90;;;;;;5004533;28;20049;-83
2022/06/13 07:13:50;;;;;;;0.95;0.77;;;14.20;99.90;;;;;;4984681;28;20475;-83
2022/06/13 07:16:15;;;;;;;1.15;0.68;;;14.30;99.90;;;;;;4982359;28;20042;-83
2022/06/13 07:18:41;;;;;;;2.35;0.95;;;14.20;99.90;;;;;;5000044;28;20045;-83
2022/06/13 07:21:08;;;;;;;1.83;1.58;;;14.30;99.90;;;;;;4999523;28;20120;-84
2022/06/13 07:23:34;;;;;;;3.95;1.58;;;14.30;99.90;;;;;;4998901;28;20088;-83
2022/06/13 07:25:59;;;;;;;0.60;0.60;;;14.30;99.90;;;;;;5000013;28;20037;-83
2022/06/13 07:28:26;;;;;;;3.63;1.42;;;14.30;99.90;;;;;;4998283;28;20069;-84
2022/06/13 07:30:51;;;;;;;2.75;1.17;;;14.30;99.90;;;;;;4999477;28;20228;-83
2022/06/13 07:33:17;;;;;;;2.08;1.10;;;14.30;99.90;;;;;;4977416;28;20045;-83
2022/06/13 07:35:43;;;;;;;5.32;1.73;;;14.30;99.90;;;;;;4980705;28;20459;-83
2022/06/13 07:38:19;;;;;;;2.78;1.67;;;14.30;99.90;;;;;;4999535;28;20033;-83
2022/06/13 07:40:48;;;;;;;1.70;1.25;;;14.40;99.90;;;;;;4981991;28;20041;-84
2022/06/13 07:43:33;;;;;;;9.55;1.23;;;14.40;99.90;;;;;;4999350;28;20120;-84
2022/06/13 07:46:02;;;;;;;1.83;0.95;;;14.40;99.90;;;;;;4999266;28;20125;-84
2022/06/13 07:48:29;;;;;;;2.55;0.85;;;14.40;99.90;;;;;;4998473;28;20677;-84
2022/06/13 07:50:55;;;;;;;2.63;0.77;;;14.40;99.90;;;;;;4998144;28;20520;-84
2022/06/13 07:53:21;;;;;;;3.20;0.93;;;14.40;99.90;;;;;;4998718;28;20249;-83
2022/06/13 07:55:47;;;;;;;3.00;1.33;;;14.40;99.90;;;;;;4999791;28;20038;-84
2022/06/13 07:58:19;;;;;;;1.20;1.10;;;14.40;99.90;;;;;;4981499;28;20199;-84
2022/06/13 08:00:49;;;;;;;2.90;0.75;;;14.40;99.90;;;;;;4999605;28;20050;-84
2022/06/13 08:03:21;;;;;;;2.90;1.02;;;14.40;99.90;;;;;;4997698;28;20041;-83
2022/06/13 08:05:46;;;;;;;1.65;1.40;;;14.40;99.90;;;;;;4999956;28;20050;-83
2022/06/13 08:08:12;;;;;;;2.00;1.23;;;14.50;99.90;;;;;;4997136;28;20456;-84
2022/06/13 08:10:39;;;;;;;2.00;0.82;;;14.50;99.90;;;;;;4998326;28;20314;-84
2022/06/13 08:13:05;;;;;;;0.82;0.60;;;14.50;99.90;;;;;;4999377;28;20632;-82
2022/06/13 08:15:31;;;;;;;2.03;1.02;;;14.50;99.90;;;;;;5003325;28;20358;-84
2022/06/13 08:17:57;;;;;;;1.25;0.55;;;14.50;99.90;;;;;;5003830;28;20404;-84
2022/06/13 08:20:23;;;;;;;8.45;1.83;;;14.50;99.90;;;;;;5003150;28;20712;-85
2022/06/13 08:22:49;;;;;;;3.83;1.85;;;14.50;99.90;;;;;;5002077;28;20274;-84
2022/06/13 08:25:18;;;;;;;2.10;1.63;;;14.60;99.90;;;;;;5000720;28;20543;-84
2022/06/13 08:27:44;;;;;;;0.80;0.75;;;14.60;99.90;;;;;;5001512;28;20144;-83
2022/06/13 08:30:10;;;;;;;2.10;1.38;;;14.60;99.90;;;;;;5001889;28;20552;-82
2022/06/13 08:32:35;;;;;;;1.58;1.05;;;14.60;99.90;;;;;;5001178;28;20112;-84
2022/06/13 08:35:01;;;;;;;3.25;1.25;;;14.60;99.90;;;;;;5001616;28;20040;-84
2022/06/13 08:37:27;;;;;;;4.72;1.63;;;14.70;99.90;;;;;;5003261;28;20064;-84
2022/06/13 08:39:52;;;;;;;3.10;1.27;;;14.60;99.90;;;;;;5001859;28;20046;-84
2022/06/13 08:42:29;;;;;;;1.98;1.63;;;14.60;99.90;;;;;;5001349;28;20118;-84
2022/06/13 08:45:21;;;;;;;2.38;1.27;;;14.60;99.90;;;;;;5003026;28;20053;-82
2022/06/13 08:48:23;;;;;;;3.25;1.55;;;14.60;99.90;;;;;;5000941;28;20130;-84
2022/06/13 08:51:03;;;;;;;0.52;0.52;;;14.70;99.90;;;;;;4998421;28;20046;-82
2022/06/13 08:53:37;;;;;;;1.48;1.00;;;14.80;99.90;;;;;;5017182;28;20042;-82
2022/06/13 08:56:08;;;;;;;1.35;1.02;;;14.70;99.90;;;;;;5002323;28;20084;-83
2022/06/13 08:58:37;;;;;;;2.63;1.48;;;14.80;99.90;;;;;;5001194;28;20981;-84
2022/06/13 09:01:40;;;;;;;2.00;1.05;;;14.80;99.90;;;;;;5000761;28;20242;-84
2022/06/13 09:04:41;;;;;;;4.97;1.48;;;14.80;99.90;;;;;;4921564;29;20047;-82
2022/06/13 09:07:06;;;;;;;3.33;1.48;;;14.80;99.90;;;;;;4973323;28;20432;-83
2022/06/13 09:09:34;;;;;;;2.67;1.38;;;14.80;99.90;;;;;;5000637;28;20049;-82
2022/06/13 09:12:04;;;;;;;3.00;1.73;;;14.90;99.90;;;;;;5001165;28;20081;-83
2022/06/13 09:15:01;;;;;;;5.78;1.17;;;15.00;99.90;;;;;;5001298;28;20281;-83
2022/06/13 09:17:49;;;;;;;1.95;1.15;;;14.90;99.90;;;;;;4987949;28;20046;-84
2022/06/13 09:20:19;;;;;;;1.80;0.90;;;14.90;99.90;;;;;;5001814;28;20054;-82
2022/06/13 09:23:10;;;;;;;1.52;1.23;;;14.90;99.90;;;;;;5002149;28;20497;-84
2022/06/13 09:25:55;;;;;;;1.05;0.57;;;14.90;99.90;;;;;;5000768;28;20149;-83
2022/06/13 09:28:49;;;;;;;0.60;0.52;;;14.90;99.90;;;;;;5001431;28;20049;-84
2022/06/13 09:31:39;;;;;;;5.28;1.15;;;15.00;99.90;;;;;;4989099;28;20050;-82
2022/06/13 09:34:39;;;;;;;1.92;0.85;;;15.00;99.90;;;;;;5001598;28;20050;-83
2022/06/13 09:37:04;;;;;;;2.92;1.45;;;15.00;99.90;;;;;;5002058;28;20053;-82
2022/06/13 09:39:30;;;;;;;8.07;1.10;;;15.00;99.90;;;;;;5000512;28;20167;-83
2022/06/13 09:41:59;;;;;;;4.90;1.30;;;15.00;99.90;;;;;;5002998;28;20042;-83
2022/06/13 09:44:39;;;;;;;4.82;1.50;;;14.90;99.90;;;;;;5001424;28;20057;-83
2022/06/13 09:47:46;;;;;;;7.57;1.48;;;14.90;99.90;;;;;;5002343;28;20046;-83
2022/06/13 09:50:32;;;;;;;4.47;1.70;;;15.00;99.90;;;;;;4996033;28;20038;-80
2022/06/13 09:53:07;;;;;;;4.45;1.20;;;15.00;99.90;;;;;;4996661;28;20618;-82
2022/06/13 09:55:35;;;;;;;2.42;1.23;;;15.00;99.90;;;;;;5002172;28;20328;-84
2022/06/13 09:58:44;;;;;;;1.48;1.08;;;14.70;99.90;;;;;;5000521;28;20038;-84
2022/06/13 10:01:27;;;;;;;1.88;1.27;;;14.50;99.90;;;;;;4921943;29;20122;-84
2022/06/13 10:04:04;;;;;;;3.05;1.25;;;14.30;99.90;;;;;;4998474;28;20125;-83
2022/06/13 10:06:53;;;;;;;5.38;1.30;;;14.20;99.90;;;;;;5002228;28;20045;-84
2022/06/13 10:09:46;;;;;;;5.68;1.88;;;14.20;99.90;;;;;;5000117;28;20041;-81
2022/06/13 10:12:12;;;;;;;2.20;1.45;;;14.10;99.90;;;;;;5000140;28;20128;-82
2022/06/13 10:14:48;;;;;;;1.98;1.27;;;14.20;99.90;;;;;;5002427;28;20138;-81
2022/06/13 10:17:35;;;;;;;3.53;1.30;;;14.10;99.90;;;;;;5002275;28;20053;-82
2022/06/13 10:20:26;;;;;;;2.78;1.27;;;14.20;99.90;;;;;;5002209;28;20073;-82
2022/06/13 10:23:02;;;;;;;1.63;1.37;;;14.20;99.90;;;;;;5001858;28;20058;-81
2022/06/13 10:25:54;;;;;;;2.53;1.38;;;14.30;99.90;;;;;;5003130;28;20084;-81
2022/06/13 10:28:45;;;;;;;7.95;1.88;;;14.30;99.90;;;;;;5009656;28;20044;-81
2022/06/13 10:31:32;;;;;;;2.17;0.95;;;14.30;99.90;;;;;;5002412;28;20045;-80
2022/06/13 10:34:06;;;;;;;0.77;0.75;;;14.30;99.90;;;;;;4984670;28;20141;-81
2022/06/13 10:36:55;;;;;;;2.45;1.40;;;14.30;99.90;;;;;;4982076;28;20049;-82
2022/06/13 10:39:24;;;;;;;4.45;1.60;;;14.30;99.90;;;;;;5000080;28;20256;-83
2022/06/13 10:41:54;;;;;;;3.17;1.98;;;14.30;99.90;;;;;;5000806;28;20058;-81
2022/06/13 10:44:21;;;;;;;4.05;2.63;;;14.40;99.90;;;;;;5000515;28;20060;-82
2022/06/13 10:46:53;;;;;;;4.43;1.10;;;14.50;99.90;;;;;;4998463;28;20432;-81
2022/06/13 10:49:22;;;;;;;1.75;1.35;;;14.50;99.90;;;;;;4997823;28;20041;-80
2022/06/13 10:51:48;;;;;;;3.97;1.58;;;14.60;99.90;;;;;;4999025;28;20460;-81
2022/06/13 10:54:21;;;;;;;4.13;1.30;;;14.70;99.90;;;;;;4993843;28;20498;-84
2022/06/13 10:56:54;;;;;;;3.70;1.65;;;14.70;99.90;;;;;;4998061;28;20352;-90
2022/06/13 10:59:26;;;;;;;1.48;0.93;;;14.80;99.90;;;;;;4983951;28;20595;-93
2022/06/13 11:02:00;;;;;;;2.97;1.50;;;14.80;99.90;;;;;;5000624;28;20045;-90
2022/06/13 11:04:30;;;;;;;1.70;1.10;;;14.90;99.90;;;;;;5014560;28;20033;-86
2022/06/13 11:07:14;;;;;;;2.75;1.10;;;14.90;99.90;;;;;;5000375;28;20499;-88
2022/06/13 11:09:47;;;;;;;0.95;0.73;;;14.90;99.90;;;;;;5013054;28;20343;-92
2022/06/13 11:12:23;;;;;;;0.82;0.82;;;14.90;99.90;;;;;;4999949;28;20093;-90
2022/06/13 11:23:17;;;;;;;0.85;0.85;;;14.80;99.90;;;;;;5000777;28;20301;-91
2022/06/13 11:25:43;;;;;;;5.10;1.40;;;14.80;99.90;;;;;;4998736;28;20045;-87
2022/06/13 11:28:22;;;;;;;4.03;2.33;;;14.90;99.90;;;;;;4980261;28;20500;-90
2022/06/13 11:30:50;;;;;;;3.47;1.27;;;15.00;99.90;;;;;;5000676;28;20508;-96
2022/06/13 11:33:31;;;;;;;4.53;1.45;;;15.00;99.90;;;;;;5001967;28;20495;-87
2022/06/13 11:36:16;;;;;;;3.42;1.00;;;15.10;99.90;;;;;;4994172;28;20042;-86
2022/06/13 11:39:05;;;;;;;1.27;1.13;;;15.10;99.90;;;;;;4979922;28;20046;-84
2022/06/13 11:41:35;;;;;;;5.90;0.95;;;15.10;99.90;;;;;;5011734;28;20085;-80
2022/06/13 11:44:13;;;;;;;6.45;1.75;;;15.20;99.90;;;;;;4999484;28;20048;-84
2022/06/13 11:46:41;;;;;;;5.50;1.00;;;15.20;99.90;;;;;;5012742;28;20345;-82
2022/06/13 11:49:17;;;;;;;2.25;1.23;;;15.20;99.90;;;;;;4984527;28;20057;-83
2022/06/13 11:52:01;;;;;;;5.93;1.33;;;15.20;99.90;;;;;;5003326;28;20570;-83
2022/06/13 11:54:35;;;;;;;0.95;0.80;;;15.20;99.90;;;;;;5001889;28;20046;-83
2022/06/13 11:57:13;;;;;;;1.85;0.95;;;15.20;99.90;;;;;;5004100;28;20050;-82
2022/06/13 12:00:03;;;;;;;1.58;0.98;;;15.20;99.90;;;;;;5000679;28;20112;-83
2022/06/13 12:02:41;;;;;;;1.77;1.13;;;15.20;99.90;;;;;;4998732;28;20045;-85
2022/06/13 12:05:16;;;;;;;1.30;1.15;;;15.20;99.90;;;;;;4999253;28;20481;-82
2022/06/13 12:08:04;;;;;;;1.77;1.25;;;15.30;99.90;;;;;;5001983;28;20046;-85
2022/06/13 12:10:41;;;;;;;2.47;1.02;;;15.40;99.90;;;;;;5002904;28;20034;-85
2022/06/13 12:13:20;;;;;;;2.60;1.17;;;15.50;99.90;;;;;;4983923;28;20062;-85
2022/06/13 12:16:24;;;;;;;1.27;0.90;;;15.60;99.90;;;;;;5002434;28;20550;-86
2022/06/13 12:19:16;;;;;;;4.75;1.08;;;15.70;99.90;;;;;;5002732;28;20228;-84
2022/06/13 12:22:00;;;;;;;2.10;1.60;;;15.80;99.90;;;;;;4989371;28;20069;-85
2022/06/13 12:24:40;;;;;;;2.72;1.83;;;15.80;99.90;;;;;;5000925;28;20061;-83
2022/06/13 12:27:45;;;;;;;4.72;1.25;;;15.70;99.90;;;;;;5002589;28;20619;-81
2022/06/13 12:30:41;;;;;;;6.13;2.03;;;15.70;99.90;;;;;;5003497;28;20104;-82
2022/06/13 12:33:38;;;;;;;2.35;0.88;;;15.80;99.90;;;;;;5001071;28;20046;-83
2022/06/13 12:36:41;;;;;;;1.73;0.80;;;15.80;99.90;;;;;;5000005;28;20064;-85
2022/06/13 12:39:39;;;;;;;4.18;1.63;;;15.80;99.90;;;;;;5013614;28;20042;-81
2022/06/13 12:42:42;;;;;;;2.95;1.67;;;15.80;99.90;;;;;;4995568;28;20072;-83
2022/06/13 12:45:47;;;;;;;3.72;1.15;;;15.80;99.90;;;;;;5015091;28;20045;-82
2022/06/13 12:48:24;;;;;;;6.40;1.20;;;15.80;99.90;;;;;;5000434;28;20400;-86
2022/06/13 12:51:07;;;;;;;1.83;1.23;;;15.70;99.90;;;;;;5000625;28;20112;-87
2022/06/13 12:54:06;;;;;;;3.33;1.55;;;15.70;99.90;;;;;;5001247;28;20436;-82
2022/06/13 12:56:51;;;;;;;1.13;1.10;;;15.70;99.90;;;;;;5016755;28;20054;-85
2022/06/13 12:59:31;;;;;;;4.35;1.52;;;15.80;99.90;;;;;;4999382;28;20053;-84
2022/06/13 13:01:56;;;;;;;3.45;1.38;;;15.90;99.90;;;;;;5003390;28;20046;-82
2022/06/13 13:04:49;;;;;;;3.75;1.08;;;15.90;99.90;;;;;;5001826;28;20614;-84
2022/06/13 13:07:34;;;;;;;2.75;1.33;;;15.90;99.90;;;;;;5002206;28;20520;-85
2022/06/13 13:10:22;;;;;;;2.47;1.23;;;15.90;99.90;;;;;;5002800;28;20400;-83
2022/06/13 13:13:01;;;;;;;8.35;1.25;;;15.80;99.90;;;;;;5001535;28;20057;-83
2022/06/13 13:15:46;;;;;;;3.63;0.90;;;15.80;99.90;;;;;;5001208;28;20034;-86
2022/06/13 13:18:42;;;;;;;2.13;1.33;;;15.80;99.90;;;;;;4981924;28;20071;-85
2022/06/13 13:21:45;;;;;;;0.68;0.38;;;15.70;99.90;;;;;;5000220;28;20181;-86
2022/06/13 13:24:14;;;;;;;1.33;1.25;;;15.70;99.90;;;;;;4999911;28;20046;-85
2022/06/13 13:27:09;;;;;;;0.60;0.60;;;15.70;99.90;;;;;;5010773;28;20409;-84
2022/06/13 13:29:48;;;;;;;1.58;0.80;;;15.70;99.90;;;;;;5001475;28;20040;-85
2022/06/13 13:32:46;;;;;;;1.30;0.68;;;15.80;99.90;;;;;;4999577;28;20096;-85
2022/06/13 13:35:28;;;;;;;0.70;0.50;;;15.90;99.90;;;;;;4999273;28;20081;-85
2022/06/13 13:38:16;;;;;;;1.52;0.75;;;16.00;99.90;;;;;;4998016;28;20044;-86
2022/06/13 13:40:48;;;;;;;3.72;1.08;;;16.10;99.90;;;;;;4999066;28;20057;-84
2022/06/13 13:43:23;;;;;;;0.60;0.60;;;16.00;99.90;;;;;;5000655;28;20078;-85
2022/06/13 13:45:55;;;;;;;0.93;0.73;;;16.00;99.90;;;;;;5010181;28;20042;-84
2022/06/13 13:48:42;;;;;;;;;;;16.00;99.90;;;;;;5001886;28;20540;-86
2022/06/13 13:51:16;;;;;;;0.52;0.52;;;16.00;99.90;;;;;;5002757;28;19928;-81
2022/06/13 13:53:57;;;;;;;0.63;0.63;;;16.00;99.90;;;;;;4999127;28;20096;-79